Time;durP1;ratioP1;P1;durP2;ratioP2;P2;SDS_P1;SDS_P2;PMS_P1;PMS_P2;Temp;Humidity;BMP_temperature;BMP_pressure;BME280_temperature;BME280_humidity;BME280_pressure;Samples;Min_cycle;Max_cycle;Signal;HPM_P1;HPM_P2
2022/11/14 00:00:27;;;;;;;;;;;7.80;99.90;;;;;;2616976;54;19957;-69
2022/11/14 00:03:01;;;;;;;;;;;7.80;99.90;;;;;;2621392;54;20517;-69
2022/11/14 00:05:31;;;;;;;;;;;7.80;99.90;;;;;;2620051;51;19957;-69
2022/11/14 00:08:01;;;;;;;;;;;7.80;99.90;;;;;;2617929;54;19945;-69
2022/11/14 00:10:30;;;;;;;;;;;7.80;99.90;;;;;;2618556;47;19957;-69
2022/11/14 00:13:00;;;;;;;;;;;7.80;99.90;;;;;;2621438;46;20014;-69
2022/11/14 00:15:29;;;;;;;;;;;7.70;99.90;;;;;;2621964;54;19947;-70
2022/11/14 00:18:02;;;;;;;;;;;7.70;99.90;;;;;;2622288;51;19947;-69
2022/11/14 00:20:31;;;;;;;;;;;7.70;99.90;;;;;;2617425;47;19954;-70
2022/11/14 00:23:01;;;;;;;;;;;7.70;99.90;;;;;;2616302;47;19947;-69
2022/11/14 00:25:30;;;;;;;;;;;7.70;99.90;;;;;;2616605;51;19950;-70
2022/11/14 00:28:00;;;;;;;;;;;7.70;99.90;;;;;;2616429;54;19947;-68
2022/11/14 00:30:30;;;;;;;;;;;7.70;99.90;;;;;;2615634;54;19950;-69
2022/11/14 00:33:02;;;;;;;;;;;7.70;99.90;;;;;;2617302;39;20605;-68
2022/11/14 00:35:31;;;;;;;;;;;7.70;99.90;;;;;;2616015;51;19950;-69
2022/11/14 00:38:01;;;;;;;;;;;7.70;99.90;;;;;;2616049;47;19946;-68
2022/11/14 00:40:30;;;;;;;;;;;7.70;99.90;;;;;;2617365;54;19946;-69
2022/11/14 00:43:00;;;;;;;;;;;7.70;99.90;;;;;;2618241;39;20391;-70
2022/11/14 00:45:29;;;;;;;;;;;7.70;99.90;;;;;;2616115;54;20561;-68
2022/11/14 00:48:02;;;;;;;;;;;7.70;99.90;;;;;;2616588;47;19947;-68
2022/11/14 00:50:31;;;;;;;;;;;7.70;99.90;;;;;;2616692;54;19969;-69
2022/11/14 00:53:01;;;;;;;;;;;7.70;99.90;;;;;;2616253;54;19950;-69
2022/11/14 00:55:30;;;;;;;;;;;7.80;99.90;;;;;;2616346;54;20530;-69
2022/11/14 00:58:00;;;;;;;;;;;7.80;99.90;;;;;;2616375;47;19971;-69
2022/11/14 01:00:29;;;;;;;;;;;7.70;99.90;;;;;;2617876;54;19946;-70
2022/11/14 01:03:01;;;;;;;;;;;7.70;99.90;;;;;;2617083;54;19947;-69
2022/11/14 01:05:31;;;;;;;;;;;8.40;99.90;;;;;;2617045;47;19947;-68
2022/11/14 01:08:00;;;;;;;;;;;7.60;99.90;;;;;;2615932;54;20007;-69
2022/11/14 01:10:30;;;;;;;;;;;7.60;99.90;;;;;;2617165;49;19946;-69
2022/11/14 01:12:59;;;;;;;;;;;7.60;99.90;;;;;;2620571;54;19954;-69
2022/11/14 01:15:29;;;;;;;;;;;7.50;99.90;;;;;;2619834;39;20127;-71
2022/11/14 01:17:58;;;;;;;;;;;7.40;99.90;;;;;;2618735;54;19950;-72
2022/11/14 01:20:31;;;;;;;;;;;7.50;99.90;;;;;;2618729;39;20327;-68
2022/11/14 01:23:00;;;;;;;;;;;7.40;99.90;;;;;;2617275;54;20513;-69
2022/11/14 01:25:30;;;;;;;;;;;7.40;99.90;;;;;;2616059;53;19997;-69
2022/11/14 01:27:59;;;;;;;;;;;7.30;99.90;;;;;;2618826;54;19954;-69
2022/11/14 01:30:29;;;;;;;;;;;7.30;99.90;;;;;;2617759;39;20206;-69
2022/11/14 01:32:58;;;;;;;;;;;7.20;99.90;;;;;;2616827;54;19938;-69
2022/11/14 01:35:30;;;;;;;;;;;7.20;99.90;;;;;;2616548;39;20403;-69
2022/11/14 01:38:00;;;;;;;;;;;7.20;99.90;;;;;;2614549;54;19977;-70
2022/11/14 01:40:30;;;;;;;;;;;7.20;99.90;;;;;;2615330;54;19947;-69
2022/11/14 01:43:22;;;;;;;;;;;7.10;99.90;;;;;;2616664;47;20743;-69
2022/11/14 01:45:54;;;;;;;;;;;7.10;99.90;;;;;;2615446;54;19946;-69
2022/11/14 01:48:26;;;;;;;;;;;7.10;99.90;;;;;;2615694;54;20462;-69
2022/11/14 01:51:00;;;;;;;;;;;7.10;99.90;;;;;;2616301;54;20075;-70
2022/11/14 01:53:30;;;;;;;;;;;7.00;99.90;;;;;;2615569;31;20493;-69
2022/11/14 01:56:00;;;;;;;;;;;7.00;99.90;;;;;;2616554;54;20002;-69
2022/11/14 01:58:31;;;;;;;;;;;7.00;99.90;;;;;;2616982;39;20375;-69
2022/11/14 02:01:00;;;;;;;;;;;6.90;99.90;;;;;;2617095;54;20451;-69
2022/11/14 02:03:30;;;;;;;;;;;6.90;99.90;;;;;;2617900;54;19946;-68
2022/11/14 02:06:02;;;;;;;;;;;6.90;99.90;;;;;;2616357;54;19954;-71
2022/11/14 02:08:33;;;;;;;;;;;6.90;99.90;;;;;;2614966;51;19973;-69
2022/11/14 02:11:02;;;;;;;;;;;6.80;99.90;;;;;;2621482;47;19990;-70
2022/11/14 02:13:32;;;;;;;;;;;6.90;99.90;;;;;;2617388;31;20409;-70
2022/11/14 02:16:01;;;;;;;;;;;6.80;99.90;;;;;;2616618;39;20374;-69
2022/11/14 02:18:31;;;;;;;;;;;5.40;99.90;;;;;;2616541;54;19959;-69
2022/11/14 02:21:03;;;;;;;;;;;6.80;99.90;;;;;;2616517;47;20494;-68
2022/11/14 02:23:33;;;;;;;;;;;6.70;99.90;;;;;;2616793;39;20685;-68
2022/11/14 02:26:03;;;;;;;;;;;6.70;99.90;;;;;;2616083;54;20490;-69
2022/11/14 02:28:33;;;;;;;;;;;6.70;99.90;;;;;;2616120;54;19951;-68
2022/11/14 02:31:02;;;;;;;;;;;6.70;99.90;;;;;;2617966;54;19951;-69
2022/11/14 02:33:32;;;;;;;;;;;6.70;99.90;;;;;;2618048;54;19973;-70
2022/11/14 02:36:04;;;;;;;;;;;6.70;99.90;;;;;;2619401;39;20388;-68
